Terminal Aerodrome Forecast
Issued by NWS Paducah, KY

Home | Current Version | Previous Version | Text Only | Print | Product List | Glossary On
Versions: 1 2 3 4 5 6 7 8 9 10 11 12 13 14 15 16 17 18 19 20 21 22 23 24 25
000
FTUS43 KPAH 191120
TAFEVV
TAF
KEVV 191120Z 1912/2012 08005KT 3SM -SHRA BR SCT006 OVC015
      TEMPO 1912/1916 1SM TSRA BR OVC006CB
     FM191600 14006KT 4SM -TSRA BR OVC010CB
     FM191900 20007KT P6SM OVC020
     FM200000 22007KT P6SM VCTS BKN030CB
     FM200800 19006KT 4SM -SHRA BR BKN020 PROB30 2008/2012 2SM TSRA
      BR OVC010CB=

USA.gov is the U.S. government's official web portal to all federal, state and local government web resources and services.